sensor_id;sensor_type;location;lat;lon;timestamp;temperature;humidity
67358;HTU21D;54240;51.096;5.878;2023-02-07T00:00:49;1.70;118.99
67358;HTU21D;54240;51.096;5.878;2023-02-07T00:03:15;1.66;118.99
67358;HTU21D;54240;51.096;5.878;2023-02-07T00:05:41;1.63;118.99
67358;HTU21D;54240;51.096;5.878;2023-02-07T00:08:07;1.58;118.99
67358;HTU21D;54240;51.096;5.878;2023-02-07T00:10:34;1.60;118.99
67358;HTU21D;54240;51.096;5.878;2023-02-07T00:13:00;1.55;118.99
67358;HTU21D;54240;51.096;5.878;2023-02-07T00:15:26;1.56;118.99
67358;HTU21D;54240;51.096;5.878;2023-02-07T00:17:52;1.60;118.99
67358;HTU21D;54240;51.096;5.878;2023-02-07T00:20:18;1.61;118.99
67358;HTU21D;54240;51.096;5.878;2023-02-07T00:22:44;1.55;118.99
67358;HTU21D;54240;51.096;5.878;2023-02-07T00:25:11;1.54;118.99
67358;HTU21D;54240;51.096;5.878;2023-02-07T00:27:37;1.57;118.99
67358;HTU21D;54240;51.096;5.878;2023-02-07T00:30:07;1.56;118.99
67358;HTU21D;54240;51.096;5.878;2023-02-07T00:32:34;1.55;118.99
67358;HTU21D;54240;51.096;5.878;2023-02-07T00:35:00;1.54;118.99
67358;HTU21D;54240;51.096;5.878;2023-02-07T00:37:26;1.53;118.99
67358;HTU21D;54240;51.096;5.878;2023-02-07T00:39:53;1.52;118.99
67358;HTU21D;54240;51.096;5.878;2023-02-07T00:42:19;1.49;118.99
67358;HTU21D;54240;51.096;5.878;2023-02-07T00:44:45;1.48;118.99
67358;HTU21D;54240;51.096;5.878;2023-02-07T00:47:11;1.42;118.99
67358;HTU21D;54240;51.096;5.878;2023-02-07T00:49:37;1.37;118.99
67358;HTU21D;54240;51.096;5.878;2023-02-07T00:52:03;1.37;118.99
67358;HTU21D;54240;51.096;5.878;2023-02-07T00:54:29;1.36;118.99
67358;HTU21D;54240;51.096;5.878;2023-02-07T00:56:55;1.35;118.99
67358;HTU21D;54240;51.096;5.878;2023-02-07T00:59:20;1.34;118.99
67358;HTU21D;54240;51.096;5.878;2023-02-07T01:01:46;1.28;118.99
67358;HTU21D;54240;51.096;5.878;2023-02-07T01:04:12;1.24;118.99
67358;HTU21D;54240;51.096;5.878;2023-02-07T01:06:38;1.25;118.99
67358;HTU21D;54240;51.096;5.878;2023-02-07T01:09:07;1.23;118.99
67358;HTU21D;54240;51.096;5.878;2023-02-07T01:11:33;1.21;118.99
67358;HTU21D;54240;51.096;5.878;2023-02-07T01:14:00;1.17;118.99
67358;HTU21D;54240;51.096;5.878;2023-02-07T01:16:32;1.16;118.99
67358;HTU21D;54240;51.096;5.878;2023-02-07T01:19:07;1.14;118.99
67358;HTU21D;54240;51.096;5.878;2023-02-07T01:21:33;1.11;118.99
67358;HTU21D;54240;51.096;5.878;2023-02-07T01:24:00;1.06;118.99
67358;HTU21D;54240;51.096;5.878;2023-02-07T01:26:26;1.06;118.99
67358;HTU21D;54240;51.096;5.878;2023-02-07T01:28:54;1.03;118.99
67358;HTU21D;54240;51.096;5.878;2023-02-07T01:31:21;0.99;118.99
67358;HTU21D;54240;51.096;5.878;2023-02-07T01:33:55;0.99;118.99
67358;HTU21D;54240;51.096;5.878;2023-02-07T01:36:22;0.96;118.99
67358;HTU21D;54240;51.096;5.878;2023-02-07T01:38:51;0.92;118.99
67358;HTU21D;54240;51.096;5.878;2023-02-07T01:41:20;0.89;118.99
67358;HTU21D;54240;51.096;5.878;2023-02-07T01:43:59;0.88;118.99
67358;HTU21D;54240;51.096;5.878;2023-02-07T01:46:27;0.83;118.99
67358;HTU21D;54240;51.096;5.878;2023-02-07T01:48:56;0.82;118.99
67358;HTU21D;54240;51.096;5.878;2023-02-07T01:51:25;0.80;118.99
67358;HTU21D;54240;51.096;5.878;2023-02-07T01:53:55;0.76;118.99
67358;HTU21D;54240;51.096;5.878;2023-02-07T01:56:24;0.73;118.99
67358;HTU21D;54240;51.096;5.878;2023-02-07T01:58:52;0.68;118.99
67358;HTU21D;54240;51.096;5.878;2023-02-07T02:01:23;0.63;118.99
67358;HTU21D;54240;51.096;5.878;2023-02-07T02:03:53;0.58;118.99
67358;HTU21D;54240;51.096;5.878;2023-02-07T02:06:22;0.53;118.99
67358;HTU21D;54240;51.096;5.878;2023-02-07T02:08:53;0.49;118.99
67358;HTU21D;54240;51.096;5.878;2023-02-07T02:15:00;0.43;118.99
67358;HTU21D;54240;51.096;5.878;2023-02-07T02:17:45;0.39;118.99
67358;HTU21D;54240;51.096;5.878;2023-02-07T02:23:09;0.38;118.99
67358;HTU21D;54240;51.096;5.878;2023-02-07T02:25:54;0.38;118.99
67358;HTU21D;54240;51.096;5.878;2023-02-07T02:34:46;0.39;118.99
67358;HTU21D;54240;51.096;5.878;2023-02-07T02:40:01;0.43;118.99
67358;HTU21D;54240;51.096;5.878;2023-02-07T02:42:51;0.47;118.99
67358;HTU21D;54240;51.096;5.878;2023-02-07T02:45:43;0.49;118.99
67358;HTU21D;54240;51.096;5.878;2023-02-07T02:48:11;0.47;118.99
67358;HTU21D;54240;51.096;5.878;2023-02-07T02:50:38;0.50;118.99
67358;HTU21D;54240;51.096;5.878;2023-02-07T02:53:12;0.50;118.99
67358;HTU21D;54240;51.096;5.878;2023-02-07T03:01:30;0.43;118.99
67358;HTU21D;54240;51.096;5.878;2023-02-07T03:04:21;0.38;118.99
67358;HTU21D;54240;51.096;5.878;2023-02-07T03:07:03;0.37;118.99
67358;HTU21D;54240;51.096;5.878;2023-02-07T03:14:53;0.35;118.99
67358;HTU21D;54240;51.096;5.878;2023-02-07T03:17:29;0.31;118.99
67358;HTU21D;54240;51.096;5.878;2023-02-07T03:20:17;0.31;118.99
67358;HTU21D;54240;51.096;5.878;2023-02-07T03:22:46;0.28;118.99
67358;HTU21D;54240;51.096;5.878;2023-02-07T03:25:14;0.27;118.99
67358;HTU21D;54240;51.096;5.878;2023-02-07T03:27:44;0.24;118.99
67358;HTU21D;54240;51.096;5.878;2023-02-07T03:30:14;0.20;118.99
67358;HTU21D;54240;51.096;5.878;2023-02-07T03:32:46;0.16;118.99
67358;HTU21D;54240;51.096;5.878;2023-02-07T03:37:56;0.09;118.99
67358;HTU21D;54240;51.096;5.878;2023-02-07T03:40:26;0.07;118.99
67358;HTU21D;54240;51.096;5.878;2023-02-07T03:43:07;0.08;118.99
67358;HTU21D;54240;51.096;5.878;2023-02-07T03:45:35;0.06;118.99
67358;HTU21D;54240;51.096;5.878;2023-02-07T03:48:01;0.08;118.99
67358;HTU21D;54240;51.096;5.878;2023-02-07T03:50:27;0.05;118.99
67358;HTU21D;54240;51.096;5.878;2023-02-07T03:52:53;0.04;118.99
67358;HTU21D;54240;51.096;5.878;2023-02-07T03:55:19;0.04;118.99
67358;HTU21D;54240;51.096;5.878;2023-02-07T03:57:44;0.01;118.99
67358;HTU21D;54240;51.096;5.878;2023-02-07T04:00:11;-0.01;118.99
67358;HTU21D;54240;51.096;5.878;2023-02-07T04:02:41;-0.03;118.99
67358;HTU21D;54240;51.096;5.878;2023-02-07T04:05:07;-0.07;118.99
67358;HTU21D;54240;51.096;5.878;2023-02-07T04:07:33;-0.10;118.99
67358;HTU21D;54240;51.096;5.878;2023-02-07T04:09:59;-0.12;118.99
67358;HTU21D;54240;51.096;5.878;2023-02-07T04:12:25;-0.14;112.33
67358;HTU21D;54240;51.096;5.878;2023-02-07T04:15:02;-0.21;91.93
67358;HTU21D;54240;51.096;5.878;2023-02-07T04:17:30;-0.26;78.72
67358;HTU21D;54240;51.096;5.878;2023-02-07T04:19:56;-0.30;74.73
67358;HTU21D;54240;51.096;5.878;2023-02-07T04:22:21;-0.34;75.86
67358;HTU21D;54240;51.096;5.878;2023-02-07T04:24:47;-0.38;78.83
67358;HTU21D;54240;51.096;5.878;2023-02-07T04:27:13;-0.41;74.38
67358;HTU21D;54240;51.096;5.878;2023-02-07T04:29:40;-0.46;65.66
67358;HTU21D;54240;51.096;5.878;2023-02-07T04:32:05;-0.51;67.54
67358;HTU21D;54240;51.096;5.878;2023-02-07T04:34:31;-0.53;84.39
67358;HTU21D;54240;51.096;5.878;2023-02-07T04:36:57;-0.53;103.33
67358;HTU21D;54240;51.096;5.878;2023-02-07T04:39:23;-0.50;112.59
67358;HTU21D;54240;51.096;5.878;2023-02-07T04:41:49;-0.47;116.38
67358;HTU21D;54240;51.096;5.878;2023-02-07T04:44:15;-0.49;114.95
67358;HTU21D;54240;51.096;5.878;2023-02-07T04:46:40;-0.52;108.68
67358;HTU21D;54240;51.096;5.878;2023-02-07T04:49:06;-0.52;103.79
67358;HTU21D;54240;51.096;5.878;2023-02-07T04:51:32;-0.52;102.41
67358;HTU21D;54240;51.096;5.878;2023-02-07T04:53:58;-0.54;98.55
67358;HTU21D;54240;51.096;5.878;2023-02-07T04:56:24;-0.55;100.19
67358;HTU21D;54240;51.096;5.878;2023-02-07T04:58:50;-0.55;106.51
67358;HTU21D;54240;51.096;5.878;2023-02-07T05:01:16;-0.56;113.86
67358;HTU21D;54240;51.096;5.878;2023-02-07T05:03:42;-0.57;114.67
67358;HTU21D;54240;51.096;5.878;2023-02-07T05:06:08;-0.59;114.14
67358;HTU21D;54240;51.096;5.878;2023-02-07T05:08:35;-0.61;105.82
67358;HTU21D;54240;51.096;5.878;2023-02-07T05:11:04;-0.64;110.22
67358;HTU21D;54240;51.096;5.878;2023-02-07T05:13:30;-0.65;107.62
67358;HTU21D;54240;51.096;5.878;2023-02-07T05:15:56;-0.70;100.65
67358;HTU21D;54240;51.096;5.878;2023-02-07T05:18:22;-0.75;98.87
67358;HTU21D;54240;51.096;5.878;2023-02-07T05:20:48;-0.77;104.95
67358;HTU21D;54240;51.096;5.878;2023-02-07T05:23:14;-0.75;111.58
67358;HTU21D;54240;51.096;5.878;2023-02-07T05:25:41;-0.74;116.81
67358;HTU21D;54240;51.096;5.878;2023-02-07T05:28:09;-0.75;113.35
67358;HTU21D;54240;51.096;5.878;2023-02-07T05:30:35;-0.79;114.77
67358;HTU21D;54240;51.096;5.878;2023-02-07T05:33:01;-0.82;118.99
67358;HTU21D;54240;51.096;5.878;2023-02-07T05:35:43;-0.86;118.99
67358;HTU21D;54240;51.096;5.878;2023-02-07T05:38:12;-0.86;118.99
67358;HTU21D;54240;51.096;5.878;2023-02-07T05:40:40;-0.90;118.99
67358;HTU21D;54240;51.096;5.878;2023-02-07T05:43:06;-0.93;118.99
67358;HTU21D;54240;51.096;5.878;2023-02-07T05:45:33;-0.91;118.99
67358;HTU21D;54240;51.096;5.878;2023-02-07T05:47:59;-0.91;118.99
67358;HTU21D;54240;51.096;5.878;2023-02-07T05:50:25;-0.90;118.99
67358;HTU21D;54240;51.096;5.878;2023-02-07T05:53:04;-0.91;118.99
67358;HTU21D;54240;51.096;5.878;2023-02-07T05:55:30;-0.89;118.99
67358;HTU21D;54240;51.096;5.878;2023-02-07T05:57:56;-0.91;118.99
67358;HTU21D;54240;51.096;5.878;2023-02-07T06:00:22;-0.93;118.99
67358;HTU21D;54240;51.096;5.878;2023-02-07T06:02:48;-0.94;118.99
67358;HTU21D;54240;51.096;5.878;2023-02-07T06:05:16;-0.97;118.99
67358;HTU21D;54240;51.096;5.878;2023-02-07T06:07:43;-0.97;118.99
67358;HTU21D;54240;51.096;5.878;2023-02-07T06:10:09;-0.98;118.99
67358;HTU21D;54240;51.096;5.878;2023-02-07T06:12:35;-0.99;118.99
67358;HTU21D;54240;51.096;5.878;2023-02-07T06:15:02;-0.99;118.99
67358;HTU21D;54240;51.096;5.878;2023-02-07T06:17:29;-0.99;118.99
67358;HTU21D;54240;51.096;5.878;2023-02-07T06:19:55;-0.98;118.99
67358;HTU21D;54240;51.096;5.878;2023-02-07T06:22:21;-1.00;118.82
67358;HTU21D;54240;51.096;5.878;2023-02-07T06:24:47;-1.01;111.49
67358;HTU21D;54240;51.096;5.878;2023-02-07T06:27:12;-1.02;106.69
67358;HTU21D;54240;51.096;5.878;2023-02-07T06:29:38;-1.03;97.42
67358;HTU21D;54240;51.096;5.878;2023-02-07T06:32:04;-1.08;86.80
67358;HTU21D;54240;51.096;5.878;2023-02-07T06:34:30;-1.10;80.91
67358;HTU21D;54240;51.096;5.878;2023-02-07T06:36:56;-1.11;83.23
67358;HTU21D;54240;51.096;5.878;2023-02-07T06:39:22;-1.13;88.69
67358;HTU21D;54240;51.096;5.878;2023-02-07T06:41:48;-1.13;88.48
67358;HTU21D;54240;51.096;5.878;2023-02-07T06:44:14;-1.14;87.57
67358;HTU21D;54240;51.096;5.878;2023-02-07T06:46:40;-1.16;85.10
67358;HTU21D;54240;51.096;5.878;2023-02-07T06:49:05;-1.17;83.95
67358;HTU21D;54240;51.096;5.878;2023-02-07T06:51:32;-1.18;83.04
67358;HTU21D;54240;51.096;5.878;2023-02-07T06:53:57;-1.20;83.39
67358;HTU21D;54240;51.096;5.878;2023-02-07T06:56:24;-1.23;82.36
67358;HTU21D;54240;51.096;5.878;2023-02-07T06:58:50;-1.25;82.06
67358;HTU21D;54240;51.096;5.878;2023-02-07T07:01:16;-1.26;86.18
67358;HTU21D;54240;51.096;5.878;2023-02-07T07:03:45;-1.27;89.47
67358;HTU21D;54240;51.096;5.878;2023-02-07T07:06:11;-1.28;91.93
67358;HTU21D;54240;51.096;5.878;2023-02-07T07:08:37;-1.29;92.24
67358;HTU21D;54240;51.096;5.878;2023-02-07T07:11:03;-1.27;95.64
67358;HTU21D;54240;51.096;5.878;2023-02-07T07:13:30;-1.27;93.52
67358;HTU21D;54240;51.096;5.878;2023-02-07T07:15:56;-1.26;92.80
67358;HTU21D;54240;51.096;5.878;2023-02-07T07:18:22;-1.25;88.80
67358;HTU21D;54240;51.096;5.878;2023-02-07T07:20:56;-1.25;85.03
67358;HTU21D;54240;51.096;5.878;2023-02-07T07:23:22;-1.23;83.51
67358;HTU21D;54240;51.096;5.878;2023-02-07T07:25:48;-1.17;80.98
67358;HTU21D;54240;51.096;5.878;2023-02-07T07:28:14;-1.02;90.50
67358;HTU21D;54240;51.096;5.878;2023-02-07T07:30:40;-0.90;91.86
67358;HTU21D;54240;51.096;5.878;2023-02-07T07:33:06;-0.77;87.35
67358;HTU21D;54240;51.096;5.878;2023-02-07T07:35:32;-0.67;76.05
67358;HTU21D;54240;51.096;5.878;2023-02-07T07:37:58;-0.58;64.10
67358;HTU21D;54240;51.096;5.878;2023-02-07T07:40:24;-0.43;54.30
67358;HTU21D;54240;51.096;5.878;2023-02-07T07:42:50;-0.22;46.77
67358;HTU21D;54240;51.096;5.878;2023-02-07T07:45:38;0.06;38.88
67358;HTU21D;54240;51.096;5.878;2023-02-07T07:48:04;0.36;35.78
67358;HTU21D;54240;51.096;5.878;2023-02-07T07:50:30;0.72;6.66
67358;HTU21D;54240;51.096;5.878;2023-02-07T07:52:56;1.09;-6.00
67358;HTU21D;54240;51.096;5.878;2023-02-07T07:55:22;1.47;-6.00
67358;HTU21D;54240;51.096;5.878;2023-02-07T07:57:48;1.71;-6.00
67358;HTU21D;54240;51.096;5.878;2023-02-07T08:00:14;1.95;-6.00
67358;HTU21D;54240;51.096;5.878;2023-02-07T08:02:42;2.22;-6.00
67358;HTU21D;54240;51.096;5.878;2023-02-07T08:05:08;2.49;-6.00
67358;HTU21D;54240;51.096;5.878;2023-02-07T08:07:36;2.84;-6.00
67358;HTU21D;54240;51.096;5.878;2023-02-07T08:10:02;3.25;-6.00
67358;HTU21D;54240;51.096;5.878;2023-02-07T08:12:28;3.63;-6.00
67358;HTU21D;54240;51.096;5.878;2023-02-07T08:14:53;3.82;-6.00
67358;HTU21D;54240;51.096;5.878;2023-02-07T08:17:20;3.99;-6.00
67358;HTU21D;54240;51.096;5.878;2023-02-07T08:19:46;4.27;-6.00
67358;HTU21D;54240;51.096;5.878;2023-02-07T08:22:12;4.67;-6.00
67358;HTU21D;54240;51.096;5.878;2023-02-07T08:24:40;5.05;-6.00
67358;HTU21D;54240;51.096;5.878;2023-02-07T08:27:07;5.26;-6.00
67358;HTU21D;54240;51.096;5.878;2023-02-07T08:29:33;5.10;-6.00
67358;HTU21D;54240;51.096;5.878;2023-02-07T08:31:59;4.92;-6.00
67358;HTU21D;54240;51.096;5.878;2023-02-07T08:34:24;4.79;-6.00
67358;HTU21D;54240;51.096;5.878;2023-02-07T08:36:53;4.88;-6.00
67358;HTU21D;54240;51.096;5.878;2023-02-07T08:39:19;5.04;-6.00
67358;HTU21D;54240;51.096;5.878;2023-02-07T08:41:45;5.25;-6.00
67358;HTU21D;54240;51.096;5.878;2023-02-07T08:44:11;5.43;-6.00
67358;HTU21D;54240;51.096;5.878;2023-02-07T08:46:37;5.28;-6.00
67358;HTU21D;54240;51.096;5.878;2023-02-07T08:49:03;5.10;-6.00
67358;HTU21D;54240;51.096;5.878;2023-02-07T08:51:29;4.98;-6.00
67358;HTU21D;54240;51.096;5.878;2023-02-07T08:53:54;4.93;-6.00
67358;HTU21D;54240;51.096;5.878;2023-02-07T08:56:20;4.88;-6.00
67358;HTU21D;54240;51.096;5.878;2023-02-07T08:58:46;4.82;-6.00
67358;HTU21D;54240;51.096;5.878;2023-02-07T09:01:12;5.11;-6.00
67358;HTU21D;54240;51.096;5.878;2023-02-07T09:03:38;5.38;-6.00
67358;HTU21D;54240;51.096;5.878;2023-02-07T09:06:04;5.66;-6.00
67358;HTU21D;54240;51.096;5.878;2023-02-07T09:08:30;5.82;-6.00
67358;HTU21D;54240;51.096;5.878;2023-02-07T09:10:56;5.68;-6.00
67358;HTU21D;54240;51.096;5.878;2023-02-07T09:13:22;5.57;-6.00
67358;HTU21D;54240;51.096;5.878;2023-02-07T09:15:55;5.33;-6.00
67358;HTU21D;54240;51.096;5.878;2023-02-07T09:18:22;5.53;-6.00
67358;HTU21D;54240;51.096;5.878;2023-02-07T09:20:49;5.97;-6.00
67358;HTU21D;54240;51.096;5.878;2023-02-07T09:23:15;5.61;-6.00
67358;HTU21D;54240;51.096;5.878;2023-02-07T09:25:50;5.54;-6.00
67358;HTU21D;54240;51.096;5.878;2023-02-07T09:28:17;5.87;-6.00
67358;HTU21D;54240;51.096;5.878;2023-02-07T09:30:45;6.02;-6.00
67358;HTU21D;54240;51.096;5.878;2023-02-07T09:33:13;6.28;-6.00
67358;HTU21D;54240;51.096;5.878;2023-02-07T09:35:42;6.60;-6.00
67358;HTU21D;54240;51.096;5.878;2023-02-07T09:38:13;6.68;-6.00
67358;HTU21D;54240;51.096;5.878;2023-02-07T09:40:40;6.24;-6.00
67358;HTU21D;54240;51.096;5.878;2023-02-07T09:46:05;6.39;-6.00
67358;HTU21D;54240;51.096;5.878;2023-02-07T09:48:45;6.54;-6.00
67358;HTU21D;54240;51.096;5.878;2023-02-07T09:51:17;6.52;-6.00
67358;HTU21D;54240;51.096;5.878;2023-02-07T09:53:51;6.23;-6.00
67358;HTU21D;54240;51.096;5.878;2023-02-07T09:56:21;6.44;-6.00
67358;HTU21D;54240;51.096;5.878;2023-02-07T09:59:01;6.90;-6.00
67358;HTU21D;54240;51.096;5.878;2023-02-07T10:01:47;7.13;-6.00
67358;HTU21D;54240;51.096;5.878;2023-02-07T10:06:45;6.82;-6.00
67358;HTU21D;54240;51.096;5.878;2023-02-07T10:09:16;6.91;-6.00
67358;HTU21D;54240;51.096;5.878;2023-02-07T10:14:55;6.57;-6.00
67358;HTU21D;54240;51.096;5.878;2023-02-07T10:17:53;6.68;-6.00
67358;HTU21D;54240;51.096;5.878;2023-02-07T10:20:35;6.98;-6.00
67358;HTU21D;54240;51.096;5.878;2023-02-07T10:29:12;7.85;-6.00
67358;HTU21D;54240;51.096;5.878;2023-02-07T10:31:47;8.38;-6.00
67358;HTU21D;54240;51.096;5.878;2023-02-07T10:34:19;8.26;-6.00
67358;HTU21D;54240;51.096;5.878;2023-02-07T10:36:49;8.17;-6.00
67358;HTU21D;54240;51.096;5.878;2023-02-07T10:39:28;8.05;-6.00
67358;HTU21D;54240;51.096;5.878;2023-02-07T10:41:56;8.22;-6.00
67358;HTU21D;54240;51.096;5.878;2023-02-07T10:44:23;8.60;-6.00
67358;HTU21D;54240;51.096;5.878;2023-02-07T10:46:57;8.42;-6.00
67358;HTU21D;54240;51.096;5.878;2023-02-07T10:49:28;8.51;-6.00
67358;HTU21D;54240;51.096;5.878;2023-02-07T10:51:58;8.41;-6.00
67358;HTU21D;54240;51.096;5.878;2023-02-07T10:54:27;8.29;-6.00
67358;HTU21D;54240;51.096;5.878;2023-02-07T10:56:59;8.17;-6.00
67358;HTU21D;54240;51.096;5.878;2023-02-07T10:59:36;8.15;-6.00
67358;HTU21D;54240;51.096;5.878;2023-02-07T11:05:01;9.27;-6.00
67358;HTU21D;54240;51.096;5.878;2023-02-07T11:07:28;9.21;-6.00
67358;HTU21D;54240;51.096;5.878;2023-02-07T11:10:14;9.80;-6.00
67358;HTU21D;54240;51.096;5.878;2023-02-07T11:12:49;10.66;-6.00
67358;HTU21D;54240;51.096;5.878;2023-02-07T11:15:20;11.11;-6.00
67358;HTU21D;54240;51.096;5.878;2023-02-07T11:17:54;11.67;-6.00
67358;HTU21D;54240;51.096;5.878;2023-02-07T11:20:37;11.88;-6.00
67358;HTU21D;54240;51.096;5.878;2023-02-07T11:23:13;12.16;-6.00
67358;HTU21D;54240;51.096;5.878;2023-02-07T11:25:45;12.52;-6.00
67358;HTU21D;54240;51.096;5.878;2023-02-07T11:28:25;12.46;-6.00
67358;HTU21D;54240;51.096;5.878;2023-02-07T11:31:00;12.38;-6.00
67358;HTU21D;54240;51.096;5.878;2023-02-07T11:33:31;12.32;-6.00
67358;HTU21D;54240;51.096;5.878;2023-02-07T11:36:19;12.05;-6.00
67358;HTU21D;54240;51.096;5.878;2023-02-07T11:38:48;11.85;-6.00
67358;HTU21D;54240;51.096;5.878;2023-02-07T11:41:19;12.36;-6.00
67358;HTU21D;54240;51.096;5.878;2023-02-07T11:43:55;12.93;-6.00
67358;HTU21D;54240;51.096;5.878;2023-02-07T11:46:30;12.96;-6.00
67358;HTU21D;54240;51.096;5.878;2023-02-07T11:48:58;13.27;-6.00
67358;HTU21D;54240;51.096;5.878;2023-02-07T11:51:24;13.22;-6.00
67358;HTU21D;54240;51.096;5.878;2023-02-07T11:54:00;13.27;-6.00
67358;HTU21D;54240;51.096;5.878;2023-02-07T11:56:43;13.45;-6.00
67358;HTU21D;54240;51.096;5.878;2023-02-07T11:59:20;13.85;-6.00
67358;HTU21D;54240;51.096;5.878;2023-02-07T12:01:53;14.40;-6.00
67358;HTU21D;54240;51.096;5.878;2023-02-07T12:04:30;14.70;-6.00
67358;HTU21D;54240;51.096;5.878;2023-02-07T12:09:32;13.65;-6.00
67358;HTU21D;54240;51.096;5.878;2023-02-07T12:12:06;13.99;-6.00
67358;HTU21D;54240;51.096;5.878;2023-02-07T12:14:43;13.03;-6.00
67358;HTU21D;54240;51.096;5.878;2023-02-07T12:17:20;12.66;-6.00
67358;HTU21D;54240;51.096;5.878;2023-02-07T12:19:54;12.53;-6.00
67358;HTU21D;54240;51.096;5.878;2023-02-07T12:22:27;13.02;-6.00
67358;HTU21D;54240;51.096;5.878;2023-02-07T12:25:32;13.23;-6.00
67358;HTU21D;54240;51.096;5.878;2023-02-07T12:28:11;13.85;-6.00
67358;HTU21D;54240;51.096;5.878;2023-02-07T12:30:49;14.56;-6.00
67358;HTU21D;54240;51.096;5.878;2023-02-07T12:36:28;16.49;-6.00
67358;HTU21D;54240;51.096;5.878;2023-02-07T12:39:19;16.32;-6.00
67358;HTU21D;54240;51.096;5.878;2023-02-07T12:42:12;16.00;-6.00
67358;HTU21D;54240;51.096;5.878;2023-02-07T12:44:51;15.66;-6.00
67358;HTU21D;54240;51.096;5.878;2023-02-07T12:53:23;13.34;-6.00
67358;HTU21D;54240;51.096;5.878;2023-02-07T12:59:05;11.55;-6.00
67358;HTU21D;54240;51.096;5.878;2023-02-07T13:09:56;10.09;-6.00
67358;HTU21D;54240;51.096;5.878;2023-02-07T13:12:55;9.85;-6.00
67358;HTU21D;54240;51.096;5.878;2023-02-07T13:18:10;9.75;-6.00
67358;HTU21D;54240;51.096;5.878;2023-02-07T13:23:27;9.30;-6.00
67358;HTU21D;54240;51.096;5.878;2023-02-07T13:25:59;9.19;-6.00
67358;HTU21D;54240;51.096;5.878;2023-02-07T13:31:17;9.32;-6.00
67358;HTU21D;54240;51.096;5.878;2023-02-07T13:33:47;9.47;-6.00
67358;HTU21D;54240;51.096;5.878;2023-02-07T13:36:18;9.53;-6.00
67358;HTU21D;54240;51.096;5.878;2023-02-07T13:39:06;9.56;-6.00
67358;HTU21D;54240;51.096;5.878;2023-02-07T13:41:35;9.56;-6.00
67358;HTU21D;54240;51.096;5.878;2023-02-07T13:44:33;9.66;-6.00
67358;HTU21D;54240;51.096;5.878;2023-02-07T13:55:38;9.55;-6.00
67358;HTU21D;54240;51.096;5.878;2023-02-07T13:59:23;9.67;-6.00
67358;HTU21D;54240;51.096;5.878;2023-02-07T14:01:33;9.64;-6.00
67358;HTU21D;54240;51.096;5.878;2023-02-07T14:04:10;9.29;-6.00
67358;HTU21D;54240;51.096;5.878;2023-02-07T14:06:41;8.90;-6.00
67358;HTU21D;54240;51.096;5.878;2023-02-07T14:11:48;9.50;-6.00
67358;HTU21D;54240;51.096;5.878;2023-02-07T14:14:23;9.55;-6.00
67358;HTU21D;54240;51.096;5.878;2023-02-07T14:17:09;9.44;-6.00
67358;HTU21D;54240;51.096;5.878;2023-02-07T14:22:18;9.49;-6.00
67358;HTU21D;54240;51.096;5.878;2023-02-07T14:32:43;9.94;-6.00
67358;HTU21D;54240;51.096;5.878;2023-02-07T14:38:01;9.89;-6.00
67358;HTU21D;54240;51.096;5.878;2023-02-07T14:40:51;9.84;-6.00
67358;HTU21D;54240;51.096;5.878;2023-02-07T14:46:38;9.39;-6.00
67358;HTU21D;54240;51.096;5.878;2023-02-07T14:49:12;9.32;-6.00
67358;HTU21D;54240;51.096;5.878;2023-02-07T15:00:03;8.88;-6.00
67358;HTU21D;54240;51.096;5.878;2023-02-07T15:02:34;8.50;-6.00
67358;HTU21D;54240;51.096;5.878;2023-02-07T15:07:42;8.06;-6.00
67358;HTU21D;54240;51.096;5.878;2023-02-07T15:10:30;7.98;-6.00
67358;HTU21D;54240;51.096;5.878;2023-02-07T15:12:58;7.64;-6.00
67358;HTU21D;54240;51.096;5.878;2023-02-07T15:15:34;7.63;-6.00
67358;HTU21D;54240;51.096;5.878;2023-02-07T15:18:13;7.58;-6.00
67358;HTU21D;54240;51.096;5.878;2023-02-07T15:20:40;7.70;-6.00
67358;HTU21D;54240;51.096;5.878;2023-02-07T15:23:13;7.75;-6.00
67358;HTU21D;54240;51.096;5.878;2023-02-07T15:25:42;7.72;-6.00
67358;HTU21D;54240;51.096;5.878;2023-02-07T15:31:14;7.68;-6.00
67358;HTU21D;54240;51.096;5.878;2023-02-07T15:36:39;7.58;-6.00
67358;HTU21D;54240;51.096;5.878;2023-02-07T15:39:16;7.61;-6.00
67358;HTU21D;54240;51.096;5.878;2023-02-07T15:41:45;7.62;-6.00
67358;HTU21D;54240;51.096;5.878;2023-02-07T15:44:29;7.50;-6.00
67358;HTU21D;54240;51.096;5.878;2023-02-07T15:47:02;7.37;-6.00
67358;HTU21D;54240;51.096;5.878;2023-02-07T15:49:35;7.29;-6.00
67358;HTU21D;54240;51.096;5.878;2023-02-07T15:52:29;7.13;-6.00
67358;HTU21D;54240;51.096;5.878;2023-02-07T15:55:00;7.07;-6.00
67358;HTU21D;54240;51.096;5.878;2023-02-07T15:57:32;7.05;-6.00
67358;HTU21D;54240;51.096;5.878;2023-02-07T16:00:20;6.96;-6.00
67358;HTU21D;54240;51.096;5.878;2023-02-07T16:02:59;6.74;-6.00
67358;HTU21D;54240;51.096;5.878;2023-02-07T16:05:29;6.65;-6.00
67358;HTU21D;54240;51.096;5.878;2023-02-07T16:07:58;6.55;-6.00
67358;HTU21D;54240;51.096;5.878;2023-02-07T16:10:36;6.44;-6.00
67358;HTU21D;54240;51.096;5.878;2023-02-07T16:13:24;6.33;-6.00
67358;HTU21D;54240;51.096;5.878;2023-02-07T16:15:56;6.12;-6.00
67358;HTU21D;54240;51.096;5.878;2023-02-07T16:19:02;5.93;-6.00
67358;HTU21D;54240;51.096;5.878;2023-02-07T16:21:32;5.85;-6.00
67358;HTU21D;54240;51.096;5.878;2023-02-07T16:24:07;5.76;-6.00
67358;HTU21D;54240;51.096;5.878;2023-02-07T16:26:36;5.67;-6.00
67358;HTU21D;54240;51.096;5.878;2023-02-07T16:29:05;5.61;-6.00
67358;HTU21D;54240;51.096;5.878;2023-02-07T16:31:33;5.57;-6.00
67358;HTU21D;54240;51.096;5.878;2023-02-07T16:33:59;5.52;-6.00
67358;HTU21D;54240;51.096;5.878;2023-02-07T16:36:25;5.47;-6.00
67358;HTU21D;54240;51.096;5.878;2023-02-07T16:38:51;5.41;-6.00
67358;HTU21D;54240;51.096;5.878;2023-02-07T16:41:27;5.35;-6.00
67358;HTU21D;54240;51.096;5.878;2023-02-07T16:44:01;5.26;-6.00
67358;HTU21D;54240;51.096;5.878;2023-02-07T16:46:27;5.16;-6.00
67358;HTU21D;54240;51.096;5.878;2023-02-07T16:48:53;5.06;-6.00
67358;HTU21D;54240;51.096;5.878;2023-02-07T16:51:19;5.00;-6.00
67358;HTU21D;54240;51.096;5.878;2023-02-07T16:53:45;4.92;-6.00
67358;HTU21D;54240;51.096;5.878;2023-02-07T16:56:16;4.83;-6.00
67358;HTU21D;54240;51.096;5.878;2023-02-07T16:58:43;4.75;-6.00
67358;HTU21D;54240;51.096;5.878;2023-02-07T17:01:16;4.69;-6.00
67358;HTU21D;54240;51.096;5.878;2023-02-07T17:03:42;4.64;-6.00
67358;HTU21D;54240;51.096;5.878;2023-02-07T17:06:19;4.59;-6.00
67358;HTU21D;54240;51.096;5.878;2023-02-07T17:08:47;4.56;-6.00
67358;HTU21D;54240;51.096;5.878;2023-02-07T17:11:15;4.51;-6.00
67358;HTU21D;54240;51.096;5.878;2023-02-07T17:13:42;4.46;-6.00
67358;HTU21D;54240;51.096;5.878;2023-02-07T17:16:11;4.39;-6.00
67358;HTU21D;54240;51.096;5.878;2023-02-07T17:18:38;4.35;-6.00
67358;HTU21D;54240;51.096;5.878;2023-02-07T17:21:05;4.30;-6.00
67358;HTU21D;54240;51.096;5.878;2023-02-07T17:23:30;4.27;-6.00
67358;HTU21D;54240;51.096;5.878;2023-02-07T17:25:57;4.23;-6.00
67358;HTU21D;54240;51.096;5.878;2023-02-07T17:28:23;4.17;-6.00
67358;HTU21D;54240;51.096;5.878;2023-02-07T17:30:48;4.12;-6.00
67358;HTU21D;54240;51.096;5.878;2023-02-07T17:33:15;4.04;-6.00
67358;HTU21D;54240;51.096;5.878;2023-02-07T17:35:41;4.00;-6.00
67358;HTU21D;54240;51.096;5.878;2023-02-07T17:38:08;3.97;-6.00
67358;HTU21D;54240;51.096;5.878;2023-02-07T17:40:37;3.98;-6.00
67358;HTU21D;54240;51.096;5.878;2023-02-07T17:43:05;3.92;-6.00